Terminal Aerodrome Forecast
Issued by NWS

Home | Current Version | Previous Version | Graphics & Text | Print | Product List | Glossary On
Versions: 1 2 3 4 5 6 7 8 9 10 11 12 13 14 15 16 17 18 19 20 21 22 23 24 25 26 27
000
FTUS43 KGRB 212300 RRA
TAFMTW
TAF
KMTW 212341Z 2200/2224 12007KT 6SM BR BKN006 BKN012
     FM220300 VRB03KT 3SM BR VCSH BKN004 BKN035
     FM220700 VRB03KT 3/4SM BR VV002
     FM221400 09005KT 2SM BR BKN008 BKN035
     FM221600 10005KT 5SM HZ BKN012 BKN035
     FM222200 11006KT 5SM HZ SCT015=

USA.gov is the U.S. government's official web portal to all federal, state and local government web resources and services.